Time;durP1;ratioP1;P1;durP2;ratioP2;P2;SDS_P1;SDS_P2;PMS_P1;PMS_P2;Temp;Humidity;BMP_temperature;BMP_pressure;BME280_temperature;BME280_humidity;BME280_pressure;Samples;Min_cycle;Max_cycle;Signal;HPM_P1;HPM_P2
2023/05/28 00:01:17;;;;;;;105.17;100.47;;;9.80;99.90;;;;;;6010287;23;20426;-70
2023/05/28 00:03:44;;;;;;;92.17;87.80;;;9.90;99.90;;;;;;6010252;23;20421;-70
2023/05/28 00:06:11;;;;;;;104.13;99.83;;;9.80;99.90;;;;;;6010411;23;20753;-70
2023/05/28 00:08:38;;;;;;;192.23;185.03;;;9.80;99.90;;;;;;6010272;23;20420;-70
2023/05/28 00:11:06;;;;;;;145.97;140.47;;;9.80;99.90;;;;;;6009818;23;21035;-70
2023/05/28 00:13:33;;;;;;;182.63;176.10;;;9.80;99.90;;;;;;6010311;23;20490;-70
2023/05/28 00:16:00;;;;;;;168.93;162.83;;;9.70;99.90;;;;;;6009983;23;20428;-70
2023/05/28 00:18:28;;;;;;;160.17;154.27;;;9.70;99.90;;;;;;6010007;23;20421;-70
2023/05/28 00:20:55;;;;;;;225.07;217.40;;;9.70;99.90;;;;;;6010448;23;20503;-70
2023/05/28 00:23:22;;;;;;;238.53;230.07;;;9.70;99.90;;;;;;6010162;23;20487;-70
2023/05/28 00:25:49;;;;;;;246.07;237.17;;;9.70;99.90;;;;;;6010324;23;20425;-70
2023/05/28 00:28:17;;;;;;;221.17;213.27;;;9.60;99.90;;;;;;6010154;23;20427;-70
2023/05/28 00:30:44;;;;;;;213.67;206.43;;;9.60;99.90;;;;;;6010216;23;20765;-70
2023/05/28 00:33:11;;;;;;;166.07;159.47;;;9.70;99.90;;;;;;6010156;23;20923;-70
2023/05/28 00:35:37;;;;;;;228.17;219.97;;;9.60;99.90;;;;;;6010286;23;20420;-70
2023/05/28 00:38:04;;;;;;;262.07;252.37;;;9.60;99.90;;;;;;6009767;23;20428;-70
2023/05/28 00:40:31;;;;;;;219.63;211.30;;;9.60;99.90;;;;;;6009960;23;20998;-70
2023/05/28 00:42:58;;;;;;;216.73;208.90;;;9.60;99.90;;;;;;6009984;23;20890;-70
2023/05/28 00:45:26;;;;;;;203.23;196.03;;;9.50;99.90;;;;;;6010379;23;20742;-70
2023/05/28 00:47:53;;;;;;;146.87;141.27;;;9.40;99.90;;;;;;6010236;23;20420;-70
2023/05/28 00:50:20;;;;;;;112.20;107.83;;;9.30;99.90;;;;;;6010282;23;20847;-70
2023/05/28 00:52:50;;;;;;;129.80;124.60;;;9.30;99.90;;;;;;6009904;23;20451;-70
2023/05/28 00:55:18;;;;;;;112.83;108.00;;;9.40;99.90;;;;;;6009869;23;20427;-70
2023/05/28 00:57:47;;;;;;;146.27;140.67;;;9.30;99.90;;;;;;6010189;23;20487;-70
2023/05/28 01:00:14;;;;;;;174.67;168.17;;;9.30;99.90;;;;;;6010260;23;20897;-70
2023/05/28 01:02:42;;;;;;;171.97;165.63;;;9.30;99.90;;;;;;6010076;23;20417;-70
2023/05/28 01:05:09;;;;;;;161.07;155.20;;;9.30;99.90;;;;;;6009990;23;20420;-70
2023/05/28 01:07:37;;;;;;;174.73;168.03;;;9.20;99.90;;;;;;6009761;23;20473;-70
2023/05/28 01:10:04;;;;;;;215.70;208.10;;;9.10;99.90;;;;;;6009684;23;20424;-70
2023/05/28 01:12:32;;;;;;;235.63;227.70;;;9.00;99.90;;;;;;6009553;23;20438;-70
2023/05/28 01:14:59;;;;;;;312.67;301.57;;;9.00;99.90;;;;;;6010437;23;20743;-70
2023/05/28 01:17:26;;;;;;;408.73;392.97;;;8.90;99.90;;;;;;6011720;23;20416;-70
2023/05/28 01:19:54;;;;;;;355.17;342.07;;;9.00;99.90;;;;;;6011733;23;20427;-70
2023/05/28 01:22:27;;;;;;;361.27;348.03;;;8.80;99.90;;;;;;6011603;23;20416;-70
2023/05/28 01:24:56;;;;;;;325.43;313.23;;;8.70;99.90;;;;;;6011502;23;20977;-70
2023/05/28 01:27:23;;;;;;;378.63;363.40;;;8.70;99.90;;;;;;6011389;23;20419;-70
2023/05/28 01:29:50;;;;;;;353.93;340.33;;;8.70;99.90;;;;;;6011495;23;20665;-70
2023/05/28 01:32:17;;;;;;;367.50;353.30;;;8.70;99.90;;;;;;6010535;23;20449;-70
2023/05/28 01:34:43;;;;;;;408.63;392.27;;;8.70;99.90;;;;;;6011567;23;20765;-70
2023/05/28 01:37:15;;;;;;;411.73;395.17;;;8.60;99.90;;;;;;6011458;23;20422;-70
2023/05/28 01:39:46;;;;;;;397.77;382.40;;;8.60;99.90;;;;;;6011160;23;20403;-70
2023/05/28 01:42:14;;;;;;;450.27;431.23;;;8.60;99.90;;;;;;6011042;23;20455;-70
2023/05/28 01:44:43;;;;;;;477.10;457.30;;;8.60;99.90;;;;;;6011579;23;20426;-70
2023/05/28 01:47:12;;;;;;;504.20;482.73;;;8.50;99.90;;;;;;6011483;23;20821;-70
2023/05/28 01:49:39;;;;;;;545.17;520.73;;;8.50;99.90;;;;;;6011391;23;20419;-70
2023/05/28 01:52:06;;;;;;;519.03;496.13;;;8.40;99.90;;;;;;6011278;23;20446;-70
2023/05/28 01:54:33;;;;;;;458.30;438.97;;;8.40;99.90;;;;;;6010790;23;20420;-70
2023/05/28 01:57:01;;;;;;;459.53;439.57;;;8.30;99.90;;;;;;6011429;23;20418;-70
2023/05/28 01:59:29;;;;;;;598.53;569.93;;;8.20;99.90;;;;;;6011396;23;20419;-70
2023/05/28 02:01:56;;;;;;;569.70;543.50;;;8.10;99.90;;;;;;6011242;23;20416;-70
2023/05/28 02:04:22;;;;;;;566.63;540.07;;;8.00;99.90;;;;;;6011362;23;20418;-70
2023/05/28 02:06:49;;;;;;;561.33;534.80;;;8.00;99.90;;;;;;6011194;23;20430;-70
2023/05/28 02:09:16;;;;;;;582.10;554.60;;;8.10;99.90;;;;;;6011137;23;20421;-70
2023/05/28 02:11:43;;;;;;;555.50;529.53;;;8.20;99.90;;;;;;6011103;23;20461;-70
2023/05/28 02:14:14;;;;;;;544.30;518.60;;;8.20;99.90;;;;;;6011279;23;20742;-70
2023/05/28 02:16:42;;;;;;;558.03;531.63;;;8.30;99.90;;;;;;6011244;23;20445;-70
2023/05/28 02:19:11;;;;;;;582.70;554.47;;;8.20;99.90;;;;;;6011185;23;20420;-70
2023/05/28 02:21:37;;;;;;;555.97;529.33;;;8.20;99.90;;;;;;6011137;23;20470;-71
2023/05/28 02:24:05;;;;;;;547.57;521.47;;;8.30;99.90;;;;;;6011237;23;20419;-70
2023/05/28 02:26:32;;;;;;;552.50;526.33;;;8.30;99.90;;;;;;6010867;23;20564;-70
2023/05/28 02:28:59;;;;;;;529.33;505.00;;;8.30;99.90;;;;;;6011109;23;20426;-70
2023/05/28 02:31:26;;;;;;;594.20;564.67;;;8.30;99.90;;;;;;6010631;23;20762;-70
2023/05/28 02:33:54;;;;;;;617.10;586.57;;;8.30;99.90;;;;;;6011169;23;20431;-70
2023/05/28 02:36:22;;;;;;;583.57;555.10;;;8.30;99.90;;;;;;6011052;23;20746;-70
2023/05/28 02:38:49;;;;;;;551.83;525.93;;;8.20;99.90;;;;;;6011004;23;20418;-70
2023/05/28 02:41:16;;;;;;;629.10;599.87;;;8.10;99.90;;;;;;6010482;23;20419;-71
2023/05/28 02:43:44;;;;;;;617.70;589.50;;;8.10;99.90;;;;;;6010605;23;20419;-70
2023/05/28 02:46:11;;;;;;;671.23;639.70;;;8.10;99.90;;;;;;6010973;23;20472;-70
2023/05/28 02:48:38;;;;;;;726.97;693.03;;;8.00;99.90;;;;;;6010202;23;20419;-70
2023/05/28 02:51:06;;;;;;;705.10;670.50;;;8.00;99.90;;;;;;6010717;23;20418;-70
2023/05/28 02:53:33;;;;;;;708.43;672.43;;;7.90;99.90;;;;;;6010753;23;20453;-70
2023/05/28 02:56:00;;;;;;;689.23;655.23;;;7.80;99.90;;;;;;6010400;23;20423;-70
2023/05/28 02:58:28;;;;;;;809.33;763.43;;;7.70;99.90;;;;;;6010874;23;20735;-70
2023/05/28 03:00:55;;;;;;;839.50;790.23;;;7.70;99.90;;;;;;6010931;23;20419;-70
2023/05/28 03:03:22;;;;;;;816.83;769.43;;;7.70;99.90;;;;;;6010586;23;20450;-70
2023/05/28 03:05:50;;;;;;;778.70;736.17;;;7.70;99.90;;;;;;6010834;23;20728;-70
2023/05/28 03:08:18;;;;;;;756.40;716.83;;;7.70;99.90;;;;;;6010536;23;20422;-70
2023/05/28 03:10:45;;;;;;;806.47;763.17;;;7.60;99.90;;;;;;6009850;23;20430;-69
2023/05/28 03:13:12;;;;;;;794.67;755.00;;;7.60;99.90;;;;;;6010603;23;20763;-70
2023/05/28 03:15:39;;;;;;;803.00;763.43;;;7.60;99.90;;;;;;6010779;23;20445;-67
2023/05/28 03:18:06;;;;;;;802.17;764.17;;;7.50;99.90;;;;;;6010374;23;20891;-67
2023/05/28 03:20:33;;;;;;;830.13;787.30;;;7.50;99.90;;;;;;6010324;23;20430;-69
2023/05/28 03:23:00;;;;;;;865.67;818.80;;;7.50;99.90;;;;;;6009233;23;20419;-69
2023/05/28 03:25:28;;;;;;;877.30;827.73;;;7.50;99.90;;;;;;6010654;23;20419;-69
2023/05/28 03:27:55;;;;;;;882.17;830.70;;;7.40;99.90;;;;;;6010560;23;20423;-69
2023/05/28 03:30:22;;;;;;;878.80;826.63;;;7.40;99.90;;;;;;6010267;23;20437;-69
2023/05/28 03:32:49;;;;;;;876.33;823.23;;;7.40;99.90;;;;;;6010202;23;20427;-69
2023/05/28 03:35:16;;;;;;;887.87;834.10;;;7.50;99.90;;;;;;6010670;23;20471;-69
2023/05/28 03:37:43;;;;;;;910.50;854.30;;;7.40;99.90;;;;;;6009847;23;20723;-69
2023/05/28 03:40:10;;;;;;;890.73;839.50;;;7.40;99.90;;;;;;6010372;23;20419;-69
2023/05/28 03:42:39;;;;;;;865.27;817.10;;;7.40;99.90;;;;;;6010299;23;20481;-69
2023/05/28 03:45:07;;;;;;;873.13;822.93;;;7.30;99.90;;;;;;6010452;23;20419;-68
2023/05/28 03:47:35;;;;;;;871.00;819.70;;;7.30;99.90;;;;;;6010410;23;20516;-68
2023/05/28 03:50:02;;;;;;;887.20;833.40;;;7.30;99.90;;;;;;6010389;23;20426;-68
2023/05/28 03:52:29;;;;;;;902.13;844.60;;;7.40;99.90;;;;;;6009932;23;20442;-68
2023/05/28 03:54:56;;;;;;;898.77;842.53;;;7.50;99.90;;;;;;6010502;23;20425;-68
2023/05/28 03:57:23;;;;;;;896.53;842.03;;;7.50;99.90;;;;;;6010391;23;20418;-68
2023/05/28 03:59:51;;;;;;;873.33;822.90;;;7.50;99.90;;;;;;6010181;23;20484;-68
2023/05/28 04:02:18;;;;;;;863.53;815.03;;;7.50;99.90;;;;;;6010140;23;20415;-69
2023/05/28 04:04:47;;;;;;;869.87;821.17;;;7.40;99.90;;;;;;6010081;23;20418;-69
2023/05/28 04:07:13;;;;;;;877.90;827.80;;;7.50;99.90;;;;;;6009910;23;20414;-69
2023/05/28 04:09:41;;;;;;;881.20;828.90;;;7.50;99.90;;;;;;6010386;23;20441;-67
2023/05/28 04:12:08;;;;;;;895.87;838.43;;;7.60;99.90;;;;;;6010194;23;20442;-67
2023/05/28 04:14:35;;;;;;;895.17;835.43;;;7.70;99.90;;;;;;6010026;23;20418;-68
2023/05/28 04:17:03;;;;;;;876.50;822.57;;;7.80;99.90;;;;;;6010090;23;20418;-68
2023/05/28 04:19:30;;;;;;;834.93;789.07;;;7.80;99.90;;;;;;6010171;23;20418;-68
2023/05/28 04:21:57;;;;;;;868.53;817.47;;;7.80;99.90;;;;;;6009709;23;20426;-69
2023/05/28 04:24:23;;;;;;;873.73;820.67;;;7.90;99.90;;;;;;6009924;23;20895;-70
2023/05/28 04:26:51;;;;;;;885.93;831.27;;;8.10;99.90;;;;;;6009879;23;20739;-68
2023/05/28 04:29:18;;;;;;;891.23;835.77;;;8.20;99.90;;;;;;6009728;23;20419;-67
2023/05/28 04:31:47;;;;;;;884.37;831.60;;;8.30;99.90;;;;;;6009355;23;20765;-68
2023/05/28 04:34:16;;;;;;;913.03;854.63;;;8.20;99.90;;;;;;6010173;23;20417;-67
2023/05/28 04:36:43;;;;;;;918.53;859.53;;;8.30;99.90;;;;;;6009444;23;20505;-67
2023/05/28 04:39:10;;;;;;;938.90;872.50;;;8.40;99.90;;;;;;6009844;23;20921;-67
2023/05/28 04:41:37;;;;;;;917.17;844.67;;;8.60;99.90;;;;;;6009947;23;20414;-67
2023/05/28 04:44:04;;;;;;;900.07;827.30;;;8.90;99.90;;;;;;6010169;23;20410;-67
2023/05/28 04:46:33;;;;;;;907.30;837.30;;;9.00;99.90;;;;;;6010000;23;20414;-67
2023/05/28 04:49:00;;;;;;;920.77;853.17;;;9.10;99.90;;;;;;6010085;23;20415;-67
2023/05/28 04:51:28;;;;;;;926.63;863.13;;;9.30;99.90;;;;;;6011627;23;20421;-67
2023/05/28 04:53:55;;;;;;;918.43;858.70;;;9.40;99.90;;;;;;6011738;23;20444;-68
2023/05/28 04:56:22;;;;;;;915.33;856.70;;;9.40;99.90;;;;;;6011915;23;20448;-68
2023/05/28 04:58:49;;;;;;;900.77;846.47;;;9.50;99.90;;;;;;6011677;23;20743;-68
2023/05/28 05:01:16;;;;;;;901.33;847.63;;;9.50;99.90;;;;;;6011055;23;20420;-68
2023/05/28 05:03:43;;;;;;;891.50;838.70;;;9.60;99.90;;;;;;6011388;23;20499;-68
2023/05/28 05:06:11;;;;;;;915.07;857.87;;;9.80;99.90;;;;;;6011478;23;20428;-68
2023/05/28 05:08:39;;;;;;;901.47;848.33;;;9.90;99.90;;;;;;6011769;23;20421;-67
2023/05/28 05:11:06;;;;;;;894.70;842.90;;;10.10;99.90;;;;;;6011626;23;20447;-67
2023/05/28 05:13:33;;;;;;;885.23;834.33;;;10.20;99.90;;;;;;6011764;23;20500;-68
2023/05/28 05:16:00;;;;;;;892.27;840.63;;;10.40;99.90;;;;;;6011498;23;20419;-67
2023/05/28 05:18:27;;;;;;;890.40;839.20;;;10.50;99.90;;;;;;6011168;23;20427;-68
2023/05/28 05:20:55;;;;;;;831.90;783.77;;;10.80;99.90;;;;;;6011336;23;20471;-68
2023/05/28 05:23:22;;;;;;;481.23;461.30;;;11.10;99.90;;;;;;6011324;23;20421;-68
2023/05/28 05:25:50;;;;;;;68.73;65.47;;;11.60;99.90;;;;;;6011677;23;20426;-68
2023/05/28 05:28:17;;;;;;;21.17;19.30;;;12.10;99.90;;;;;;6010994;23;20421;-68
2023/05/28 05:30:43;;;;;;;13.43;9.20;;;12.60;99.90;;;;;;6011234;23;20438;-68
2023/05/28 05:33:10;;;;;;;19.10;8.87;;;13.10;99.90;;;;;;6011221;23;20817;-68
2023/05/28 05:35:37;;;;;;;10.77;7.23;;;13.50;99.90;;;;;;6011210;23;20752;-68
2023/05/28 05:38:04;;;;;;;16.37;8.90;;;14.20;99.90;;;;;;6011296;23;20918;-67
2023/05/28 05:40:30;;;;;;;12.57;7.30;;;14.70;99.90;;;;;;6011201;23;20423;-68
2023/05/28 05:42:58;;;;;;;12.50;7.37;;;15.10;99.90;;;;;;6010733;23;20422;-67
2023/05/28 05:45:25;;;;;;;15.33;7.67;;;15.60;99.90;;;;;;6011454;23;20426;-68
2023/05/28 05:47:52;;;;;;;13.47;7.50;;;16.00;99.90;;;;;;6011138;23;20419;-68
2023/05/28 05:50:18;;;;;;;11.97;6.90;;;16.30;97.70;;;;;;6019559;23;20422;-68
2023/05/28 05:52:45;;;;;;;12.70;7.10;;;16.60;96.00;;;;;;6010861;23;20753;-70
2023/05/28 05:55:12;;;;;;;14.50;7.87;;;16.70;93.70;;;;;;6011153;23;20422;-70
2023/05/28 05:57:39;;;;;;;16.00;8.10;;;17.00;90.90;;;;;;6011367;23;20723;-70
2023/05/28 06:00:10;;;;;;;12.07;7.53;;;17.30;87.70;;;;;;6010687;23;20419;-70
2023/05/28 06:02:38;;;;;;;14.97;8.20;;;17.60;86.10;;;;;;6010347;23;20399;-70
2023/05/28 06:05:06;;;;;;;18.03;8.97;;;18.00;84.30;;;;;;6011336;23;20419;-69
2023/05/28 06:07:33;;;;;;;13.77;6.93;;;18.40;88.90;;;;;;6010871;23;20418;-69
2023/05/28 06:09:59;;;;;;;18.87;7.63;;;18.50;72.30;;;;;;6010639;23;20485;-70
2023/05/28 06:12:26;;;;;;;11.27;6.90;;;18.70;68.90;;;;;;6010826;23;20426;-70
2023/05/28 06:14:53;;;;;;;13.30;7.20;;;19.00;67.80;;;;;;6010859;23;20425;-70
2023/05/28 06:17:22;;;;;;;15.43;7.80;;;19.20;69.40;;;;;;6010753;23;20429;-70
2023/05/28 06:19:49;;;;;;;12.53;7.90;;;19.00;62.30;;;;;;6010067;23;20895;-70
2023/05/28 06:22:16;;;;;;;12.10;6.97;;;19.00;61.00;;;;;;6010284;23;20451;-70
2023/05/28 06:24:43;;;;;;;15.53;7.80;;;19.10;61.70;;;;;;6010728;23;20418;-70
2023/05/28 06:27:10;;;;;;;11.83;6.37;;;19.20;57.50;;;;;;6010580;23;20783;-70
2023/05/28 06:29:37;;;;;;;12.80;7.40;;;20.00;64.10;;;;;;6010670;23;20421;-70
2023/05/28 06:32:04;;;;;;;16.57;6.77;;;20.50;64.60;;;;;;6010398;23;20430;-70
2023/05/28 06:34:32;;;;;;;13.10;6.30;;;20.50;50.40;;;;;;6010278;23;20446;-70
2023/05/28 06:36:59;;;;;;;10.27;5.73;;;20.70;53.90;;;;;;6010324;23;20833;-70
2023/05/28 06:39:26;;;;;;;12.60;5.70;;;21.00;47.10;;;;;;6010470;23;20426;-68
2023/05/28 06:41:53;;;;;;;11.43;5.17;;;20.90;47.70;;;;;;6010168;23;20899;-68
2023/05/28 06:44:20;;;;;;;11.20;5.43;;;20.80;47.30;;;;;;6010517;23;20414;-69
2023/05/28 06:46:47;;;;;;;13.60;6.00;;;20.50;44.80;;;;;;6011032;23;20740;-69
2023/05/28 06:49:13;;;;;;;10.30;5.13;;;20.60;53.80;;;;;;6010378;23;20426;-68
2023/05/28 06:51:42;;;;;;;11.30;5.17;;;20.60;45.40;;;;;;6010347;23;20904;-68
2023/05/28 06:54:08;;;;;;;12.70;5.70;;;20.80;50.30;;;;;;6010640;23;20438;-68
2023/05/28 06:56:35;;;;;;;13.70;6.13;;;21.00;48.00;;;;;;6010708;23;20419;-68
2023/05/28 06:59:02;;;;;;;12.73;6.00;;;20.90;43.90;;;;;;6010647;23;20423;-68
2023/05/28 07:01:29;;;;;;;10.43;5.90;;;21.10;42.70;;;;;;6010287;23;20419;-68
2023/05/28 07:03:56;;;;;;;11.00;4.80;;;21.70;41.40;;;;;;6010805;23;20466;-68
2023/05/28 07:06:22;;;;;;;12.40;5.00;;;22.00;37.20;;;;;;6010404;23;20426;-68
2023/05/28 07:08:51;;;;;;;9.13;5.23;;;22.30;37.40;;;;;;6010131;23;20536;-68
2023/05/28 07:11:19;;;;;;;11.40;4.97;;;22.70;30.20;;;;;;6008833;23;20782;-68
2023/05/28 07:13:46;;;;;;;9.07;4.47;;;22.60;27.20;;;;;;6009760;23;20775;-69
2023/05/28 07:16:13;;;;;;;8.47;3.43;;;22.60;25.90;;;;;;6010044;23;20760;-68
2023/05/28 07:18:40;;;;;;;13.20;4.77;;;22.60;27.40;;;;;;6009745;23;20418;-68
2023/05/28 07:21:06;;;;;;;9.33;4.33;;;22.80;25.90;;;;;;6009347;23;20429;-65
2023/05/28 07:23:33;;;;;;;12.77;4.77;;;22.90;29.10;;;;;;6009633;23;20422;-65
2023/05/28 07:26:01;;;;;;;11.93;4.30;;;23.10;25.60;;;;;;6009623;23;20415;-65
2023/05/28 07:28:28;;;;;;;9.60;4.40;;;22.80;21.70;;;;;;6009959;23;20419;-65
2023/05/28 07:30:55;;;;;;;9.43;4.23;;;22.40;21.40;;;;;;6009291;23;20426;-65
2023/05/28 07:33:22;;;;;;;19.20;4.37;;;22.20;21.30;;;;;;6009725;23;20442;-65
2023/05/28 07:35:49;;;;;;;9.57;4.23;;;22.50;28.50;;;;;;6010018;23;20430;-65
2023/05/28 07:38:16;;;;;;;10.90;4.63;;;22.80;26.10;;;;;;6008552;23;20419;-65
2023/05/28 07:40:43;;;;;;;12.10;4.90;;;23.30;22.10;;;;;;6009987;23;20728;-65
2023/05/28 07:43:11;;;;;;;9.63;4.30;;;23.50;20.00;;;;;;6010006;23;20421;-65
2023/05/28 07:45:38;;;;;;;8.43;4.27;;;23.10;22.00;;;;;;6010154;23;20400;-65
2023/05/28 07:48:05;;;;;;;10.80;4.90;;;23.00;21.90;;;;;;6010052;23;20418;-65
2023/05/28 07:50:32;;;;;;;10.47;5.07;;;22.60;21.60;;;;;;6010146;23;20472;-65
2023/05/28 07:52:58;;;;;;;11.20;5.60;;;22.90;21.80;;;;;;6009801;23;20418;-65
2023/05/28 07:55:25;;;;;;;9.60;4.00;;;23.10;21.90;;;;;;6010209;23;20418;-66
2023/05/28 07:57:52;;;;;;;11.77;5.10;;;22.70;21.60;;;;;;6010219;23;20419;-65
2023/05/28 08:00:20;;;;;;;10.30;4.37;;;22.90;26.10;;;;;;6009764;23;20447;-66
2023/05/28 08:02:47;;;;;;;9.23;4.53;;;22.50;26.20;;;;;;6010249;23;20418;-65
2023/05/28 08:05:15;;;;;;;9.20;4.40;;;22.10;21.30;;;;;;6010497;23;20419;-65
2023/05/28 08:07:41;;;;;;;11.00;4.40;;;22.20;22.50;;;;;;6009758;23;20900;-65
2023/05/28 08:10:08;;;;;;;8.80;3.83;;;22.00;23.20;;;;;;6010249;23;20418;-66
2023/05/28 08:12:35;;;;;;;13.10;4.80;;;22.20;23.30;;;;;;6009362;23;20963;-65
2023/05/28 08:15:02;;;;;;;11.73;4.50;;;22.30;26.80;;;;;;6010149;23;20453;-65
2023/05/28 08:17:32;;;;;;;11.97;4.53;;;22.60;21.90;;;;;;6009688;23;20755;-65
2023/05/28 08:19:59;;;;;;;11.83;4.50;;;22.60;23.00;;;;;;6010288;23;20502;-65
2023/05/28 08:22:26;;;;;;;11.37;5.10;;;22.50;21.50;;;;;;6009998;23;20506;-65
2023/05/28 08:24:52;;;;;;;9.83;5.20;;;22.70;24.60;;;;;;6010996;23;20749;-65
2023/05/28 08:27:20;;;;;;;9.20;3.87;;;22.70;25.30;;;;;;6011913;23;20418;-65
2023/05/28 08:29:47;;;;;;;8.30;4.37;;;23.00;19.40;;;;;;6012072;23;20418;-65
2023/05/28 08:32:13;;;;;;;9.57;4.20;;;23.60;20.80;;;;;;6010645;23;20434;-64
2023/05/28 08:34:41;;;;;;;12.10;5.00;;;23.30;22.10;;;;;;6011983;23;20452;-65
2023/05/28 08:37:08;;;;;;;9.07;4.23;;;23.80;19.20;;;;;;6012082;23;20418;-65
2023/05/28 08:39:35;;;;;;;12.30;5.70;;;23.60;15.60;;;;;;6011959;23;20419;-64
2023/05/28 08:42:02;;;;;;;10.10;4.43;;;23.80;18.30;;;;;;6011369;23;20907;-65
2023/05/28 08:44:29;;;;;;;11.10;5.00;;;23.70;16.40;;;;;;6011521;23;20481;-65
2023/05/28 08:46:56;;;;;;;8.63;3.73;;;24.00;15.10;;;;;;6011410;23;20419;-65
2023/05/28 08:49:31;;;;;;;8.80;4.03;;;24.50;18.30;;;;;;6011609;23;20429;-65
2023/05/28 08:52:02;;;;;;;11.43;5.27;;;24.30;14.20;;;;;;6012062;23;20763;-65
2023/05/28 08:54:30;;;;;;;9.90;4.33;;;24.40;16.20;;;;;;6011912;23;20426;-65
2023/05/28 08:56:57;;;;;;;9.73;4.43;;;24.10;14.90;;;;;;6012033;23;20418;-65
2023/05/28 08:59:27;;;;;;;8.60;4.00;;;24.10;16.50;;;;;;6012029;23;20429;-65
2023/05/28 09:01:54;;;;;;;8.53;4.03;;;23.90;13.90;;;;;;6011497;23;20795;-65
2023/05/28 09:04:20;;;;;;;7.50;3.53;;;23.70;11.80;;;;;;6011728;23;20727;-64
2023/05/28 09:06:49;;;;;;;8.10;3.77;;;23.50;13.80;;;;;;6011388;23;20418;-64
2023/05/28 09:09:17;;;;;;;8.50;3.50;;;23.90;15.00;;;;;;6011379;23;20418;-64
2023/05/28 09:11:44;;;;;;;8.50;3.30;;;24.50;10.80;;;;;;6011793;23;20418;-64
2023/05/28 09:14:13;;;;;;;8.13;3.70;;;24.60;7.80;;;;;;6011184;23;20438;-64
2023/05/28 09:16:42;;;;;;;12.10;3.97;;;24.50;10.20;;;;;;6010972;23;20418;-65
2023/05/28 09:19:10;;;;;;;10.40;3.73;;;24.90;6.90;;;;;;6011486;23;20738;-64
2023/05/28 09:21:37;;;;;;;8.40;3.27;;;24.80;6.30;;;;;;6011412;23;20457;-64
2023/05/28 09:24:05;;;;;;;8.63;3.87;;;25.10;8.20;;;;;;6010755;23;20415;-64
2023/05/28 09:26:34;;;;;;;8.50;3.87;;;25.60;10.20;;;;;;6010644;23;20425;-63
2023/05/28 09:29:01;;;;;;;9.20;4.13;;;25.60;3.10;;;;;;6011989;23;20419;-63
2023/05/28 09:31:32;;;;;;;10.47;3.47;;;25.10;1.90;;;;;;6010633;23;20429;-62
2023/05/28 09:34:02;;;;;;;8.57;4.30;;;25.30;2.00;;;;;;6011195;23;20481;-70
2023/05/28 09:36:30;;;;;;;8.70;4.20;;;25.10;2.50;;;;;;6011061;23;20754;-69
2023/05/28 09:38:57;;;;;;;9.23;3.83;;;25.90;4.30;;;;;;6011235;23;20471;-70
2023/05/28 09:41:25;;;;;;;9.50;3.90;;;25.40;1.00;;;;;;6011162;23;20897;-70
2023/05/28 09:43:59;;;;;;;6.60;3.10;;;25.60;1.00;;;;;;6011640;23;20419;-70
2023/05/28 09:46:30;;;;;;;9.90;4.30;;;25.80;4.00;;;;;;6011928;23;20500;-69
2023/05/28 09:48:57;;;;;;;11.37;4.80;;;26.30;1.50;;;;;;6011599;23;20420;-70
2023/05/28 09:51:28;;;;;;;9.70;3.97;;;26.50;1.10;;;;;;6011474;23;20732;-70
2023/05/28 09:53:58;;;;;;;8.67;3.13;;;26.90;1.00;;;;;;6011505;23;20427;-70
2023/05/28 09:56:31;;;;;;;8.53;4.30;;;27.00;1.30;;;;;;6011508;23;20420;-70
2023/05/28 09:59:00;;;;;;;8.33;3.90;;;26.90;1.30;;;;;;6011441;23;20456;-70
2023/05/28 10:01:32;;;;;;;10.60;4.10;;;27.00;1.00;;;;;;6011344;23;20431;-70
2023/05/28 10:04:06;;;;;;;10.00;2.90;;;26.60;1.00;;;;;;6011564;23;20736;-70
2023/05/28 10:06:35;;;;;;;8.67;3.30;;;26.80;1.00;;;;;;6011105;23;20386;-70
2023/05/28 10:09:04;;;;;;;8.87;3.80;;;27.30;1.00;;;;;;6011005;23;20922;-70
2023/05/28 10:11:35;;;;;;;9.13;3.67;;;27.40;1.00;;;;;;6011328;23;20613;-70
2023/05/28 10:14:05;;;;;;;9.90;3.67;;;27.60;1.00;;;;;;6011424;23;20430;-70
2023/05/28 10:16:33;;;;;;;9.50;4.60;;;28.00;1.00;;;;;;6010956;23;20419;-70
2023/05/28 10:19:02;;;;;;;8.20;3.87;;;27.80;1.00;;;;;;6011372;23;20739;-70
2023/05/28 10:21:29;;;;;;;10.90;3.90;;;27.40;1.00;;;;;;6011236;23;20425;-70
2023/05/28 10:23:57;;;;;;;9.47;4.13;;;27.40;1.00;;;;;;6011137;23;20448;-70
2023/05/28 10:26:25;;;;;;;7.00;3.20;;;27.00;1.00;;;;;;6011216;23;20424;-70
2023/05/28 10:28:56;;;;;;;10.77;4.07;;;27.20;1.00;;;;;;6011220;23;20502;-70
2023/05/28 10:31:25;;;;;;;12.30;3.53;;;27.50;1.00;;;;;;6010786;23;20440;-70
2023/05/28 10:33:52;;;;;;;9.20;3.67;;;27.50;1.00;;;;;;6010876;23;20415;-70
2023/05/28 10:36:19;;;;;;;10.20;4.13;;;28.00;1.00;;;;;;6010795;23;20421;-70
2023/05/28 10:38:47;;;;;;;12.20;4.37;;;27.60;1.00;;;;;;6010592;23;20418;-70
2023/05/28 10:41:20;;;;;;;9.07;3.90;;;27.70;1.00;;;;;;6010992;23;20419;-69
2023/05/28 10:43:47;;;;;;;10.93;3.77;;;28.20;1.00;;;;;;6011198;23;20407;-70
2023/05/28 10:46:18;;;;;;;9.33;3.67;;;29.00;1.00;;;;;;6010756;23;20986;-70
2023/05/28 10:49:10;;;;;;;7.57;3.60;;;28.40;1.00;;;;;;6010890;23;20423;-70
2023/05/28 10:51:57;;;;;;;8.27;3.77;;;28.50;1.00;;;;;;6011127;23;20393;-69
2023/05/28 10:54:40;;;;;;;12.93;3.80;;;28.20;1.00;;;;;;6010999;23;20401;-70
2023/05/28 10:57:08;;;;;;;10.00;4.23;;;29.30;1.00;;;;;;6010953;23;20410;-69
2023/05/28 10:59:47;;;;;;;9.00;4.10;;;28.70;1.00;;;;;;6010899;23;20419;-70
2023/05/28 11:02:18;;;;;;;11.17;4.50;;;28.20;1.00;;;;;;6010850;23;20410;-70
2023/05/28 11:04:46;;;;;;;17.43;4.33;;;28.50;1.00;;;;;;6010926;23;20474;-70
2023/05/28 11:07:14;;;;;;;9.13;3.80;;;28.70;1.00;;;;;;6010827;23;20423;-70
2023/05/28 11:09:40;;;;;;;8.33;3.50;;;28.90;1.00;;;;;;6010939;23;20751;-70
2023/05/28 11:12:08;;;;;;;16.40;4.33;;;29.00;1.00;;;;;;6010600;23;20418;-70
2023/05/28 11:14:36;;;;;;;12.20;3.83;;;28.60;1.00;;;;;;6010768;23;20450;-70
2023/05/28 11:17:11;;;;;;;9.90;3.70;;;28.20;1.00;;;;;;6010413;23;20449;-70
2023/05/28 11:19:42;;;;;;;8.30;4.10;;;27.90;1.00;;;;;;6010894;23;20410;-70
2023/05/28 11:22:11;;;;;;;9.50;4.00;;;28.10;1.00;;;;;;6010666;23;20422;-70
2023/05/28 11:24:57;;;;;;;11.10;3.47;;;28.40;1.00;;;;;;6010366;23;20422;-70
2023/05/28 11:27:24;;;;;;;7.83;3.33;;;28.60;1.00;;;;;;6010811;23;20403;-70
2023/05/28 11:29:51;;;;;;;10.30;3.97;;;28.50;1.00;;;;;;6010665;23;20426;-70
2023/05/28 11:32:20;;;;;;;9.90;3.90;;;29.20;1.00;;;;;;5982491;24;20420;-70
2023/05/28 11:34:48;;;;;;;7.20;3.50;;;29.20;1.00;;;;;;5982111;24;20507;-70
2023/05/28 11:37:17;;;;;;;9.67;4.60;;;29.20;1.00;;;;;;5982451;24;20483;-70
2023/05/28 11:39:50;;;;;;;8.20;3.40;;;29.20;1.00;;;;;;5982528;24;20714;-70
2023/05/28 11:42:17;;;;;;;7.20;3.33;;;28.10;1.00;;;;;;5982049;24;20420;-70
2023/05/28 11:44:45;;;;;;;10.40;4.77;;;29.10;1.00;;;;;;5982596;24;20923;-70
2023/05/28 11:47:12;;;;;;;11.07;3.93;;;29.70;1.00;;;;;;5982740;24;20783;-70
2023/05/28 11:49:40;;;;;;;9.23;3.77;;;30.40;1.00;;;;;;5982160;24;20897;-70
2023/05/28 11:52:11;;;;;;;9.93;3.97;;;29.60;1.00;;;;;;5982330;24;20398;-70
2023/05/28 11:54:40;;;;;;;8.80;3.60;;;29.50;1.00;;;;;;5982453;24;20805;-70
2023/05/28 11:57:07;;;;;;;9.47;3.30;;;28.90;1.00;;;;;;5982351;24;20789;-70
2023/05/28 11:59:34;;;;;;;7.30;2.90;;;28.80;1.00;;;;;;5981748;24;20423;-70
2023/05/28 12:02:12;;;;;;;11.43;4.10;;;29.40;1.00;;;;;;5982176;24;20394;-70
2023/05/28 12:04:38;;;;;;;9.57;4.27;;;30.00;1.00;;;;;;5982079;24;20415;-70
2023/05/28 12:07:05;;;;;;;8.57;3.40;;;30.40;1.00;;;;;;5982257;24;20721;-70
2023/05/28 12:09:32;;;;;;;6.80;2.93;;;30.10;1.00;;;;;;5982460;24;20419;-70
2023/05/28 12:12:05;;;;;;;10.00;3.93;;;30.30;1.00;;;;;;5982114;24;20940;-70
2023/05/28 12:14:32;;;;;;;8.27;3.40;;;30.80;1.00;;;;;;5981866;24;20938;-70
2023/05/28 12:17:06;;;;;;;7.60;3.47;;;29.80;1.00;;;;;;5982029;24;20884;-70
2023/05/28 12:19:33;;;;;;;6.90;3.13;;;30.30;1.00;;;;;;5982088;24;20404;-70
2023/05/28 12:22:01;;;;;;;8.77;3.80;;;29.90;1.00;;;;;;5982146;24;20425;-70
2023/05/28 12:24:29;;;;;;;8.07;4.23;;;29.90;1.00;;;;;;5982293;24;20774;-70
2023/05/28 12:26:56;;;;;;;9.20;3.63;;;29.70;1.00;;;;;;5981821;24;20423;-69
2023/05/28 12:29:24;;;;;;;7.13;3.50;;;30.90;1.00;;;;;;5982012;24;20427;-70
2023/05/28 12:32:00;;;;;;;7.10;3.77;;;31.20;1.00;;;;;;6004842;23;20426;-70
2023/05/28 12:34:26;;;;;;;7.73;4.10;;;31.00;1.00;;;;;;6010390;23;20377;-70
2023/05/28 12:36:53;;;;;;;7.50;3.40;;;30.60;1.00;;;;;;6010235;23;20419;-70